Airport View

Enter AWOS ICAO identifier for current METAR.

ex. KFNL

KCXE 200035Z AUTO 00000KT 10SM CLR 14/14 A3025 RMK AO1 T01420140

20 Oct 2020 00:36

Frequency: 121.225

Phone: 434-372-4506

Other Area AWOS: KW63 - KW78 - KW31 - KAVC

TAF KLYH 192328Z 2000/2024 20006KT P6SM FEW200 FM200600 00000KT 6SM BR SCT010 FM200800 00000KT 1 1/2SM BR BKN007 FM201300 VRB03KT 6SM BR SCT010 FM201600 21004KT P6SM SCT060